createdAt,value
2019-01-21T00:01:53.882Z,95041.90
2019-01-21T00:04:25.261Z,95036.69
2019-01-21T00:06:56.656Z,95036.48
2019-01-21T00:09:28.129Z,95042.37
2019-01-21T00:11:59.401Z,95053.73
2019-01-21T00:14:31.164Z,95042.27
2019-01-21T00:17:02.561Z,95052.45
2019-01-21T00:19:33.941Z,95052.34
2019-01-21T00:22:05.772Z,95058.69
2019-01-21T00:24:37.276Z,95066.28
2019-01-21T00:27:08.575Z,95066.89
2019-01-21T00:29:39.944Z,95064.40
2019-01-21T00:32:11.398Z,95063.05
2019-01-21T00:34:42.842Z,95059.41
2019-01-21T00:37:14.333Z,95063.16
2019-01-21T00:39:45.777Z,95063.53
2019-01-21T00:42:17.262Z,95066.53
2019-01-21T00:44:48.636Z,95064.09
2019-01-21T00:47:20.168Z,95072.88
2019-01-21T00:49:51.863Z,95071.55
2019-01-21T00:52:23.290Z,95075.69
2019-01-21T00:54:54.966Z,95081.41
2019-01-21T00:57:26.279Z,95079.59
2019-01-21T00:59:57.767Z,95084.77
2019-01-21T01:02:29.198Z,95084.30
2019-01-21T01:05:00.906Z,95083.11
2019-01-21T01:07:32.607Z,95085.98
2019-01-21T01:10:04.072Z,95092.13
2019-01-21T01:12:35.531Z,95090.66
2019-01-21T01:15:08.224Z,95095.09
2019-01-21T01:17:39.779Z,95089.88
2019-01-21T01:20:14.509Z,95091.12
2019-01-21T01:22:46.150Z,95092.83
2019-01-21T01:25:17.757Z,95086.05
2019-01-21T01:27:50.304Z,95085.58
2019-01-21T01:30:21.931Z,95089.59
2019-01-21T01:32:53.451Z,95081.08
2019-01-21T01:35:25.173Z,95079.75
2019-01-21T01:37:56.560Z,95076.42
2019-01-21T01:40:28.280Z,95073.61
2019-01-21T01:43:00.029Z,95076.69
2019-01-21T01:45:31.507Z,95073.91
2019-01-21T01:48:03.891Z,95077.19
2019-01-21T01:50:35.460Z,95080.84
2019-01-21T01:53:07.899Z,95085.24
2019-01-21T01:55:39.261Z,95080.52
2019-01-21T01:58:11.030Z,95079.50
2019-01-21T02:00:42.436Z,95079.06
2019-01-21T02:03:13.916Z,95072.91
2019-01-21T02:05:45.264Z,95074.16
2019-01-21T02:08:17.107Z,95073.88
2019-01-21T02:10:48.644Z,95078.45
2019-01-21T02:13:20.290Z,95075.08
2019-01-21T02:15:51.953Z,95076.60
2019-01-21T02:18:23.345Z,95070.21
2019-01-21T02:20:58.149Z,95071.77
2019-01-21T02:23:33.921Z,95075.89
2019-01-21T02:26:10.002Z,95074.93
2019-01-21T02:29:01.151Z,95076.55
2019-01-21T02:32:05.875Z,95075.95
2019-01-21T02:35:22.663Z,95074.60
2019-01-21T02:38:33.751Z,95075.98
2019-01-21T02:41:28.215Z,95078.42
2019-01-21T02:44:51.696Z,95080.91
2019-01-21T02:48:00.003Z,95085.04
2019-01-21T02:50:56.776Z,95087.14
2019-01-21T02:54:04.451Z,95085.04
2019-01-21T02:57:16.287Z,95089.08
2019-01-21T03:00:07.663Z,95085.50
2019-01-21T03:03:30.627Z,95082.72
2019-01-21T03:06:42.327Z,95079.33
2019-01-21T03:09:57.797Z,95072.02
2019-01-21T03:13:16.480Z,95073.08
2019-01-21T03:16:37.627Z,95074.17
2019-01-21T03:19:58.273Z,95070.77
2019-01-21T03:23:25.377Z,95069.89
2019-01-21T03:26:30.470Z,95070.77
2019-01-21T03:29:46.530Z,95070.27
2019-01-21T03:33:13.546Z,95075.48
2019-01-21T03:36:05.660Z,95077.36
2019-01-21T03:39:19.300Z,95077.39
2019-01-21T03:42:04.713Z,95067.24
2019-01-21T03:45:25.920Z,95065.20
2019-01-21T03:48:31.536Z,95067.22
2019-01-21T03:51:26.610Z,95073.22
2019-01-21T03:54:15.844Z,95072.14
2019-01-21T03:56:55.134Z,95058.75
2019-01-21T03:59:43.258Z,95074.19
2019-01-21T04:03:06.956Z,95073.36
2019-01-21T04:06:06.724Z,95063.53
2019-01-21T04:09:22.568Z,95068.92
2019-01-21T04:12:15.821Z,95071.02
2019-01-21T04:15:32.680Z,95070.27
2019-01-21T04:18:46.510Z,95067.77
2019-01-21T04:22:00.203Z,95072.14
2019-01-21T04:25:24.014Z,95070.00
2019-01-21T04:28:31.702Z,95079.91
2019-01-21T04:31:42.854Z,95080.47
2019-01-21T04:34:39.479Z,95082.05
2019-01-21T04:37:42.156Z,95083.34
2019-01-21T04:40:47.577Z,95091.92
2019-01-21T04:43:40.738Z,95098.22
2019-01-21T04:47:11.984Z,95101.39
2019-01-21T04:50:30.111Z,95106.05
2019-01-21T04:53:39.718Z,95104.11
2019-01-21T04:56:47.151Z,95111.81
2019-01-21T04:59:44.563Z,95110.95
2019-01-21T05:03:08.837Z,95119.42
2019-01-21T05:09:52.180Z,95119.97
2019-01-21T05:12:45.917Z,95116.84
2019-01-21T05:15:54.023Z,95124.34
2019-01-21T05:18:52.943Z,95123.28
2019-01-21T05:22:06.255Z,95126.53
2019-01-21T05:25:18.352Z,95131.72
2019-01-21T05:28:26.083Z,95123.40
2019-01-21T05:31:43.092Z,95123.13
2019-01-21T05:35:13.325Z,95124.48
2019-01-21T05:38:22.259Z,95125.84
2019-01-21T05:41:25.686Z,95124.72
2019-01-21T05:44:39.280Z,95132.16
2019-01-21T05:47:56.118Z,95143.34
2019-01-21T05:51:18.858Z,95143.40
2019-01-21T05:54:21.156Z,95146.44
2019-01-21T05:57:39.085Z,95149.53
2019-01-21T06:00:44.656Z,95157.56
2019-01-21T06:03:36.299Z,95160.38
2019-01-21T06:06:29.723Z,95153.33
2019-01-21T06:09:28.530Z,95161.22
2019-01-21T06:12:28.296Z,95158.00
2019-01-21T06:15:21.944Z,95163.27
2019-01-21T06:18:33.606Z,95162.88
2019-01-21T06:21:39.586Z,95169.22
2019-01-21T06:25:03.843Z,95166.66
2019-01-21T06:28:15.311Z,95168.77
2019-01-21T06:31:42.415Z,95178.42
2019-01-21T06:34:55.416Z,95175.70
2019-01-21T06:38:10.278Z,95182.86
2019-01-21T06:41:28.096Z,95182.52
2019-01-21T06:44:31.617Z,95187.24
2019-01-21T06:47:29.319Z,95190.58
2019-01-21T06:50:10.606Z,95195.73
2019-01-21T06:53:17.180Z,95202.66
2019-01-21T06:56:30.873Z,95198.03
2019-01-21T06:59:34.786Z,95204.41
2019-01-21T07:02:41.558Z,95201.23
2019-01-21T07:05:47.767Z,95209.78
2019-01-21T07:09:08.337Z,95220.20
2019-01-21T07:12:16.911Z,95218.61
2019-01-21T07:15:28.785Z,95224.31
2019-01-21T07:18:15.055Z,95231.55
2019-01-21T07:21:07.485Z,95239.28
2019-01-21T07:24:15.530Z,95237.89
2019-01-21T07:27:08.340Z,95239.24
2019-01-21T07:30:05.924Z,95248.64
2019-01-21T07:33:02.339Z,95254.91
2019-01-21T07:36:13.115Z,95252.09
2019-01-21T07:39:14.778Z,95248.52
2019-01-21T07:42:31.347Z,95247.05
2019-01-21T07:45:14.671Z,95257.71
2019-01-21T07:48:19.462Z,95261.61
2019-01-21T07:51:21.099Z,95258.44
2019-01-21T07:54:32.479Z,95256.21
2019-01-21T07:57:43.379Z,95253.70
2019-01-21T08:00:58.534Z,95254.11
2019-01-21T08:04:06.370Z,95256.57
2019-01-21T08:07:14.866Z,95261.72
2019-01-21T08:10:01.572Z,95260.97
2019-01-21T08:13:06.623Z,95269.55
2019-01-21T08:16:08.565Z,95267.69
2019-01-21T08:19:12.081Z,95273.91
2019-01-21T08:22:14.756Z,95279.62
2019-01-21T08:25:18.875Z,95280.23
2019-01-21T08:28:19.039Z,95284.73
2019-01-21T08:31:33.624Z,95290.95
2019-01-21T08:34:42.248Z,95298.11
2019-01-21T08:37:48.833Z,95304.58
2019-01-21T08:40:59.430Z,95301.53
2019-01-21T08:43:49.123Z,95298.67
2019-01-21T08:46:33.454Z,95297.82
2019-01-21T08:49:50.397Z,95302.97
2019-01-21T08:52:34.540Z,95303.01
2019-01-21T08:55:45.505Z,95309.91
2019-01-21T08:58:51.563Z,95311.97
2019-01-21T09:02:10.798Z,95308.47
2019-01-21T09:05:08.783Z,95310.52
2019-01-21T09:08:08.513Z,95314.40
2019-01-21T09:11:29.349Z,95319.60
2019-01-21T09:14:31.426Z,95319.67
2019-01-21T09:17:42.638Z,95316.58
2019-01-21T09:20:59.700Z,95314.98
2019-01-21T09:23:57.490Z,95309.66
2019-01-21T09:26:59.831Z,95302.45
2019-01-21T09:30:13.677Z,95304.05
2019-01-21T09:33:06.749Z,95306.27
2019-01-21T09:36:16.706Z,95300.87
2019-01-21T09:39:30.163Z,95298.41
2019-01-21T09:42:32.559Z,95294.48
2019-01-21T09:45:15.264Z,95282.83
2019-01-21T09:47:44.443Z,95280.46
2019-01-21T09:50:15.932Z,95289.47
2019-01-21T09:52:47.439Z,95284.36
2019-01-21T09:55:19.667Z,95284.48
2019-01-21T09:57:57.030Z,95279.84
2019-01-21T10:00:28.628Z,95275.02
2019-01-21T10:03:01.020Z,95280.20
2019-01-21T10:05:33.297Z,95268.04
2019-01-21T10:08:30.821Z,95271.23
2019-01-21T10:11:38.754Z,95262.27
2019-01-21T10:14:54.958Z,95257.47
2019-01-21T10:18:28.015Z,95255.24
2019-01-21T10:21:30.732Z,95247.66
2019-01-21T10:24:43.251Z,95238.52
2019-01-21T10:27:43.290Z,95240.25
2019-01-21T10:30:30.661Z,95234.70
2019-01-21T10:33:54.688Z,95234.89
2019-01-21T10:37:00.981Z,95229.84
2019-01-21T10:40:08.951Z,95242.91
2019-01-21T10:43:02.532Z,95241.03
2019-01-21T10:46:19.112Z,95238.09
2019-01-21T10:49:37.737Z,95234.12
2019-01-21T10:52:30.389Z,95233.44
2019-01-21T10:55:27.799Z,95228.15
2019-01-21T10:58:36.195Z,95232.72
2019-01-21T11:01:32.337Z,95228.91
2019-01-21T11:04:32.847Z,95229.08
2019-01-21T11:07:31.305Z,95233.09
2019-01-21T11:10:24.630Z,95224.38
2019-01-21T11:13:39.600Z,95224.89
2019-01-21T11:16:20.343Z,95229.50
2019-01-21T11:19:38.101Z,95231.81
2019-01-21T11:22:42.076Z,95222.81
2019-01-21T11:25:55.787Z,95221.08
2019-01-21T11:28:56.694Z,95221.64
2019-01-21T11:32:08.160Z,95212.66
2019-01-21T11:35:00.647Z,95210.83
2019-01-21T11:38:10.876Z,95217.30
2019-01-21T11:41:23.093Z,95214.61
2019-01-21T11:44:30.049Z,95210.36
2019-01-21T11:47:29.457Z,95207.03
2019-01-21T11:50:31.508Z,95208.28
2019-01-21T11:53:26.987Z,95205.16
2019-01-21T11:56:12.017Z,95200.39
2019-01-21T11:59:34.565Z,95200.08
2019-01-21T12:02:47.023Z,95198.59
2019-01-21T12:05:28.061Z,95202.14
2019-01-21T12:08:31.748Z,95204.25
2019-01-21T12:11:33.484Z,95202.88
2019-01-21T12:14:45.229Z,95199.68
2019-01-21T12:17:40.845Z,95204.16
2019-01-21T12:20:21.637Z,95203.66
2019-01-21T12:23:28.609Z,95197.34
2019-01-21T12:26:49.151Z,95195.70
2019-01-21T12:29:43.500Z,95201.98
2019-01-21T12:32:59.915Z,95189.70
2019-01-21T12:35:53.799Z,95191.30
2019-01-21T12:39:06.681Z,95193.56
2019-01-21T12:41:58.598Z,95193.81
2019-01-21T12:45:13.099Z,95191.64
2019-01-21T12:48:40.316Z,95193.34
2019-01-21T12:51:46.260Z,95196.31
2019-01-21T12:54:58.600Z,95197.31
2019-01-21T12:58:19.163Z,95197.39
2019-01-21T13:01:17.585Z,95191.67
2019-01-21T13:04:16.888Z,95190.63
2019-01-21T13:07:37.469Z,95193.67
2019-01-21T13:10:39.387Z,95194.03
2019-01-21T13:14:00.281Z,95191.80
2019-01-21T13:17:15.373Z,95191.09
2019-01-21T13:20:23.012Z,95195.27
2019-01-21T13:23:20.805Z,95197.89
2019-01-21T13:26:47.038Z,95196.33
2019-01-21T13:29:48.801Z,95199.49
2019-01-21T13:32:45.956Z,95199.09
2019-01-21T13:36:09.928Z,95195.27
2019-01-21T13:39:27.606Z,95194.84
2019-01-21T13:42:32.784Z,95195.27
2019-01-21T13:45:31.988Z,95192.85
2019-01-21T13:48:30.741Z,95195.94
2019-01-21T13:51:38.792Z,95185.86
2019-01-21T13:54:50.786Z,95185.04
2019-01-21T13:57:53.611Z,95188.41
2019-01-21T14:01:16.970Z,95187.24
2019-01-21T14:04:26.075Z,95190.38
2019-01-21T14:07:53.171Z,95188.72
2019-01-21T14:10:49.930Z,95182.56
2019-01-21T14:13:55.195Z,95190.72
2019-01-21T14:17:06.138Z,95194.55
2019-01-21T14:20:23.141Z,95193.81
2019-01-21T14:23:29.308Z,95195.73
2019-01-21T14:26:43.972Z,95197.70
2019-01-21T14:29:33.990Z,95200.43
2019-01-21T14:32:38.678Z,95202.17
2019-01-21T14:35:24.468Z,95196.12
2019-01-21T14:38:35.011Z,95198.77
2019-01-21T14:41:40.264Z,95200.43
2019-01-21T14:44:58.532Z,95195.26
2019-01-21T14:48:06.949Z,95204.60
2019-01-21T14:51:24.971Z,95204.17
2019-01-21T14:54:33.763Z,95210.49
2019-01-21T14:57:49.223Z,95212.77
2019-01-21T15:00:51.726Z,95210.95
2019-01-21T15:04:09.533Z,95211.27
2019-01-21T15:07:01.650Z,95202.64
2019-01-21T15:10:18.251Z,95207.37
2019-01-21T15:13:14.780Z,95198.66
2019-01-21T15:16:23.701Z,95204.58
2019-01-21T15:19:32.146Z,95201.59
2019-01-21T15:22:41.357Z,95201.67
2019-01-21T15:25:49.481Z,95197.64
2019-01-21T15:29:11.228Z,95209.13
2019-01-21T15:32:08.389Z,95219.12
2019-01-21T15:35:34.543Z,95214.23
2019-01-21T15:38:31.573Z,95215.16
2019-01-21T15:41:50.200Z,95210.97
2019-01-21T15:44:33.936Z,95213.00
2019-01-21T15:47:44.654Z,95219.84
2019-01-21T15:50:48.237Z,95221.79
2019-01-21T15:53:34.717Z,95222.61
2019-01-21T15:56:54.197Z,95221.66
2019-01-21T16:00:30.338Z,95220.89
2019-01-21T16:03:16.461Z,95226.86
2019-01-21T16:06:40.499Z,95229.16
2019-01-21T16:09:34.890Z,95228.99
2019-01-21T16:12:51.820Z,95231.38
2019-01-21T16:15:54.697Z,95233.25
2019-01-21T16:18:36.716Z,95237.77
2019-01-21T16:21:47.387Z,95238.51
2019-01-21T16:24:58.005Z,95243.19
2019-01-21T16:27:54.136Z,95246.75
2019-01-21T16:30:48.292Z,95242.06
2019-01-21T16:33:55.844Z,95246.05
2019-01-21T16:36:58.875Z,95243.90
2019-01-21T16:39:43.178Z,95246.75
2019-01-21T16:42:15.950Z,95250.30
2019-01-21T16:44:48.247Z,95243.23
2019-01-21T16:47:19.608Z,95247.14
2019-01-21T16:49:51.041Z,95248.70
2019-01-21T16:52:22.892Z,95246.48
2019-01-21T16:54:54.158Z,95251.69
2019-01-21T16:57:25.732Z,95249.23
2019-01-21T16:59:57.030Z,95251.38
2019-01-21T17:02:28.349Z,95256.88
2019-01-21T17:04:59.536Z,95252.83
2019-01-21T17:07:31.125Z,95251.34
2019-01-21T17:10:02.656Z,95258.93
2019-01-21T17:12:35.821Z,95253.60
2019-01-21T17:15:09.487Z,95252.56
2019-01-21T17:17:42.051Z,95257.20
2019-01-21T17:20:16.570Z,95258.66
2019-01-21T17:22:47.927Z,95258.87
2019-01-21T17:25:19.366Z,95252.83
2019-01-21T17:27:50.654Z,95252.36
2019-01-21T17:30:22.121Z,95250.16
2019-01-21T17:32:53.313Z,95251.02
2019-01-21T17:35:24.766Z,95254.47
2019-01-21T17:37:55.974Z,95251.14
2019-01-21T17:40:27.357Z,95256.70
2019-01-21T17:42:58.787Z,95251.38
2019-01-21T17:45:30.508Z,95250.81
2019-01-21T17:48:02.221Z,95253.34
2019-01-21T17:50:33.790Z,95253.51
2019-01-21T17:53:05.058Z,95265.34
2019-01-21T17:55:36.531Z,95254.02
2019-01-21T17:58:07.983Z,95257.38
2019-01-21T18:00:39.665Z,95259.84
2019-01-21T18:03:11.077Z,95260.47
2019-01-21T18:05:43.089Z,95254.33
2019-01-21T18:08:16.183Z,95260.92
2019-01-21T18:10:48.105Z,95253.77
2019-01-21T18:13:20.191Z,95255.00
2019-01-21T18:15:52.026Z,95263.80
2019-01-21T18:18:23.515Z,95245.61
2019-01-21T18:20:54.946Z,95249.52
2019-01-21T18:23:26.628Z,95257.53
2019-01-21T18:25:58.929Z,95257.89
2019-01-21T18:28:30.437Z,95256.73
2019-01-21T18:31:01.658Z,95257.66
2019-01-21T18:33:32.998Z,95260.54
2019-01-21T18:36:04.604Z,95261.31
2019-01-21T18:38:36.286Z,95261.88
2019-01-21T18:41:07.975Z,95257.06
2019-01-21T18:43:39.397Z,95259.36
2019-01-21T18:46:11.073Z,95260.87
2019-01-21T18:48:42.666Z,95256.55
2019-01-21T18:51:14.293Z,95254.79
2019-01-21T18:53:45.796Z,95256.84
2019-01-21T18:56:17.279Z,95256.70
2019-01-21T18:58:48.808Z,95254.20
2019-01-21T19:01:20.497Z,95267.26
2019-01-21T19:03:51.996Z,95264.95
2019-01-21T19:06:23.732Z,95263.03
2019-01-21T19:08:55.225Z,95268.25
2019-01-21T19:11:26.585Z,95265.26
2019-01-21T19:13:59.263Z,95267.06
2019-01-21T19:16:31.118Z,95262.57
2019-01-21T19:19:03.184Z,95267.67
2019-01-21T19:21:34.918Z,95265.26
2019-01-21T19:24:06.993Z,95271.06
2019-01-21T19:26:38.304Z,95268.73
2019-01-21T19:29:09.481Z,95264.16
2019-01-21T19:31:40.980Z,95262.63
2019-01-21T19:34:12.656Z,95263.23
2019-01-21T19:36:44.329Z,95264.41
2019-01-21T19:39:16.226Z,95260.81
2019-01-21T19:41:47.788Z,95264.27
2019-01-21T19:44:19.341Z,95266.44
2019-01-21T19:46:50.578Z,95258.55
2019-01-21T19:49:22.097Z,95259.07
2019-01-21T19:51:53.632Z,95265.98
2019-01-21T19:54:24.962Z,95261.46
2019-01-21T19:56:56.749Z,95261.77
2019-01-21T19:59:27.970Z,95254.03
2019-01-21T20:01:59.279Z,95256.20
2019-01-21T20:04:30.527Z,95255.02
2019-01-21T20:07:02.126Z,95260.36
2019-01-21T20:09:33.651Z,95252.92
2019-01-21T20:12:04.868Z,95255.69
2019-01-21T20:14:36.388Z,95256.20
2019-01-21T20:17:07.841Z,95254.27
2019-01-21T20:19:39.181Z,95256.55
2019-01-21T20:22:10.624Z,95259.20
2019-01-21T20:24:41.888Z,95269.83
2019-01-21T20:27:13.076Z,95260.81
2019-01-21T20:29:44.579Z,95255.55
2019-01-21T20:32:15.988Z,95256.84
2019-01-21T20:34:47.193Z,95251.39
2019-01-21T20:37:18.589Z,95258.59
2019-01-21T20:39:49.809Z,95259.06
2019-01-21T20:42:21.083Z,95255.96
2019-01-21T20:44:52.285Z,95254.44
2019-01-21T20:47:23.506Z,95256.56
2019-01-21T20:49:54.791Z,95258.31
2019-01-21T20:52:26.236Z,95264.62
2019-01-21T20:54:57.787Z,95263.75
2019-01-21T20:57:29.372Z,95261.98
2019-01-21T21:00:00.757Z,95257.08
2019-01-21T21:02:32.176Z,95256.50
2019-01-21T21:05:03.477Z,95253.39
2019-01-21T21:07:34.695Z,95252.63
2019-01-21T21:10:07.442Z,95251.52
2019-01-21T21:12:38.868Z,95244.78
2019-01-21T21:15:13.514Z,95247.88
2019-01-21T21:17:45.004Z,95242.51
2019-01-21T21:20:16.694Z,95252.34
2019-01-21T21:22:48.649Z,95255.02
2019-01-21T21:25:20.499Z,95255.67
2019-01-21T21:27:51.928Z,95253.73
2019-01-21T21:30:28.331Z,95253.56
2019-01-21T21:33:00.194Z,95252.92
2019-01-21T21:35:31.469Z,95258.73
2019-01-21T21:38:02.999Z,95257.02
2019-01-21T21:40:34.598Z,95249.48
2019-01-21T21:43:06.267Z,95259.55
2019-01-21T21:45:37.940Z,95255.98
2019-01-21T21:48:09.297Z,95253.11
2019-01-21T21:50:41.339Z,95249.88
2019-01-21T21:53:14.184Z,95252.63
2019-01-21T21:55:45.671Z,95250.76
2019-01-21T21:58:17.146Z,95253.25
2019-01-21T22:00:48.685Z,95248.51
2019-01-21T22:03:21.150Z,95242.68
2019-01-21T22:05:52.453Z,95245.80
2019-01-21T22:08:24.180Z,95239.23
2019-01-21T22:10:55.537Z,95247.11
2019-01-21T22:13:26.792Z,95249.86
2019-01-21T22:15:58.388Z,95244.95
2019-01-21T22:18:29.933Z,95244.18
2019-01-21T22:21:02.181Z,95241.09
2019-01-21T22:23:33.983Z,95237.22
2019-01-21T22:26:05.563Z,95230.97
2019-01-21T22:28:37.118Z,95231.13
2019-01-21T22:31:08.523Z,95222.66
2019-01-21T22:33:40.076Z,95228.31
2019-01-21T22:36:11.909Z,95224.64
2019-01-21T22:38:43.427Z,95229.02
2019-01-21T22:41:15.190Z,95226.38
2019-01-21T22:43:46.458Z,95223.46
2019-01-21T22:46:17.915Z,95219.95
2019-01-21T22:48:49.403Z,95221.87
2019-01-21T22:51:21.056Z,95216.80
2019-01-21T22:53:52.258Z,95213.28
2019-01-21T22:56:23.863Z,95214.56
2019-01-21T22:58:55.171Z,95214.53
2019-01-21T23:01:32.488Z,95218.80
2019-01-21T23:04:04.022Z,95209.07
2019-01-21T23:06:35.345Z,95208.24
2019-01-21T23:09:09.548Z,95207.47
2019-01-21T23:11:41.033Z,95208.72
2019-01-21T23:14:12.303Z,95208.83
2019-01-21T23:16:43.621Z,95210.90
2019-01-21T23:19:15.079Z,95199.61
2019-01-21T23:21:46.550Z,95201.95
2019-01-21T23:24:18.457Z,95208.25
2019-01-21T23:26:50.128Z,95204.65
2019-01-21T23:29:21.732Z,95206.05
2019-01-21T23:31:52.945Z,95209.41
2019-01-21T23:35:18.142Z,95205.98
2019-01-21T23:37:51.246Z,95200.67
2019-01-21T23:40:22.435Z,95203.05
2019-01-21T23:42:53.855Z,95198.80
2019-01-21T23:45:25.351Z,95201.45
2019-01-21T23:47:56.537Z,95192.78
2019-01-21T23:50:28.389Z,95192.27
2019-01-21T23:52:59.636Z,95201.21
2019-01-21T23:55:30.946Z,95199.77
2019-01-21T23:58:02.481Z,95198.08
